Time;durP1;ratioP1;P1;durP2;ratioP2;P2;SDS_P1;SDS_P2;PMS_P1;PMS_P2;Temp;Humidity;BMP_temperature;BMP_pressure;BME280_temperature;BME280_humidity;BME280_pressure;Samples;Min_cycle;Max_cycle;Signal;HPM_P1;HPM_P2
2021/10/29 04:00:37;;;;;;;54.50;34.70;;;7.00;99.90;;;;;;5939668;22;20476;-70
2021/10/29 04:03:05;;;;;;;46.40;31.03;;;6.80;99.90;;;;;;5014959;28;20437;-70
2021/10/29 04:05:33;;;;;;;49.80;32.57;;;6.80;99.90;;;;;;5014356;28;20923;-70
2021/10/29 04:08:00;;;;;;;48.47;32.17;;;6.70;99.90;;;;;;5014656;28;20448;-70
2021/10/29 04:10:29;;;;;;;51.53;31.90;;;6.60;99.90;;;;;;5017072;28;20460;-69
2021/10/29 04:12:57;;;;;;;53.67;33.43;;;6.50;99.90;;;;;;5034195;28;20957;-70
2021/10/29 04:15:24;;;;;;;44.87;30.20;;;6.40;99.90;;;;;;5034410;28;21017;-70
2021/10/29 04:17:52;;;;;;;44.67;30.80;;;6.40;99.90;;;;;;5035289;28;20480;-69
2021/10/29 04:20:19;;;;;;;43.40;30.63;;;6.40;99.90;;;;;;5034470;28;20460;-70
2021/10/29 04:22:46;;;;;;;44.77;30.67;;;6.50;99.90;;;;;;5034811;28;20825;-70
2021/10/29 04:25:13;;;;;;;46.73;32.87;;;6.50;99.90;;;;;;5035976;28;20981;-70
2021/10/29 04:27:45;;;;;;;42.90;32.73;;;6.40;99.90;;;;;;5037210;28;20460;-69
2021/10/29 04:30:15;;;;;;;38.70;27.50;;;6.30;99.90;;;;;;5037333;28;20470;-69
2021/10/29 04:32:42;;;;;;;37.07;29.17;;;6.40;99.90;;;;;;5038711;28;20476;-69
2021/10/29 04:35:12;;;;;;;40.00;29.20;;;6.40;99.90;;;;;;5039967;28;20488;-70
2021/10/29 04:37:40;;;;;;;44.03;29.27;;;6.40;99.90;;;;;;5037503;28;20467;-70
2021/10/29 04:40:08;;;;;;;43.80;29.40;;;6.30;99.90;;;;;;5037596;28;20478;-70
2021/10/29 04:42:35;;;;;;;40.57;29.20;;;6.20;99.90;;;;;;5037280;28;20475;-69
2021/10/29 04:45:02;;;;;;;34.50;27.27;;;6.20;99.90;;;;;;5037298;28;20452;-69
2021/10/29 04:47:29;;;;;;;34.60;26.37;;;6.20;99.90;;;;;;5037868;28;20458;-69
2021/10/29 04:49:55;;;;;;;32.97;24.10;;;6.30;99.90;;;;;;5037528;28;20470;-69
2021/10/29 04:52:24;;;;;;;38.67;27.40;;;6.30;99.90;;;;;;5036631;28;20482;-70
2021/10/29 04:54:50;;;;;;;36.80;28.03;;;6.30;99.90;;;;;;5037311;28;20459;-70
2021/10/29 04:57:17;;;;;;;33.10;25.30;;;6.30;99.90;;;;;;5037556;28;20458;-69
2021/10/29 04:59:44;;;;;;;33.53;26.17;;;6.30;99.90;;;;;;5035649;28;20448;-70
2021/10/29 05:02:10;;;;;;;38.83;28.90;;;6.20;99.90;;;;;;5033068;28;20484;-70
2021/10/29 05:04:37;;;;;;;38.97;29.63;;;6.20;99.90;;;;;;5033446;28;20456;-71
2021/10/29 05:07:04;;;;;;;39.27;29.77;;;6.00;99.90;;;;;;5033605;28;20456;-70
2021/10/29 05:09:32;;;;;;;37.40;31.93;;;5.90;99.90;;;;;;5033628;28;20436;-70
2021/10/29 05:11:59;;;;;;;40.73;31.10;;;5.90;99.90;;;;;;5033478;28;20498;-70
2021/10/29 05:14:26;;;;;;;35.70;30.47;;;5.80;99.90;;;;;;5033626;28;20451;-71
2021/10/29 05:16:53;;;;;;;48.23;32.77;;;5.80;99.90;;;;;;5033558;28;20475;-70
2021/10/29 05:19:19;;;;;;;98.43;33.60;;;5.70;99.90;;;;;;5033453;28;20464;-69
2021/10/29 05:21:46;;;;;;;146.43;37.00;;;5.60;99.90;;;;;;5033583;28;20488;-74
2021/10/29 05:24:14;;;;;;;234.27;40.33;;;5.60;99.90;;;;;;5033578;28;20817;-73
2021/10/29 05:26:43;;;;;;;200.20;35.80;;;5.60;99.90;;;;;;5035059;28;20856;-73
2021/10/29 05:29:10;;;;;;;221.87;39.17;;;5.60;99.90;;;;;;5034653;28;20452;-74
2021/10/29 05:31:37;;;;;;;105.73;33.90;;;5.60;99.90;;;;;;5033535;28;20472;-73
2021/10/29 05:34:04;;;;;;;249.90;41.80;;;5.60;99.90;;;;;;5033235;28;20456;-73
2021/10/29 05:36:31;;;;;;;127.97;38.20;;;5.50;99.90;;;;;;5033368;28;20499;-73
2021/10/29 05:38:58;;;;;;;69.60;38.00;;;5.50;99.90;;;;;;5036720;28;20460;-71
2021/10/29 05:41:24;;;;;;;45.80;33.60;;;5.50;99.90;;;;;;5038474;28;20479;-71
2021/10/29 05:43:52;;;;;;;42.73;31.50;;;5.50;99.90;;;;;;5038145;28;20461;-73
2021/10/29 05:46:22;;;;;;;70.33;31.10;;;5.50;99.90;;;;;;5033884;28;20432;-72
2021/10/29 05:48:49;;;;;;;89.77;33.00;;;5.60;99.90;;;;;;5033870;28;20451;-72
2021/10/29 05:51:15;;;;;;;47.33;30.87;;;5.50;99.90;;;;;;5033057;28;21001;-73
2021/10/29 05:53:53;;;;;;;60.60;29.10;;;5.50;99.90;;;;;;5033643;28;20458;-72
2021/10/29 05:56:21;;;;;;;280.93;37.20;;;5.60;99.90;;;;;;5033159;28;20976;-72
2021/10/29 05:58:48;;;;;;;261.23;36.10;;;5.60;99.90;;;;;;5033266;28;20436;-73
2021/10/29 06:01:16;;;;;;;145.10;32.37;;;5.60;99.90;;;;;;5033265;28;20480;-72
2021/10/29 06:03:43;;;;;;;173.90;33.97;;;5.50;99.90;;;;;;5035919;28;20452;-73
2021/10/29 06:06:09;;;;;;;447.47;39.47;;;5.50;99.90;;;;;;5038627;28;20464;-72
2021/10/29 06:08:36;;;;;;;272.33;39.50;;;5.40;99.90;;;;;;5038461;28;20441;-72
2021/10/29 06:11:04;;;;;;;100.50;38.67;;;5.30;99.90;;;;;;5038272;28;20467;-73
2021/10/29 06:13:30;;;;;;;329.97;38.50;;;5.30;99.90;;;;;;5036718;28;20499;-74
2021/10/29 06:15:57;;;;;;;130.37;31.60;;;5.40;99.90;;;;;;5034818;28;20575;-73
2021/10/29 06:18:27;;;;;;;59.50;26.20;;;5.40;99.90;;;;;;5036461;28;20455;-72
2021/10/29 06:20:55;;;;;;;41.70;26.27;;;5.40;99.90;;;;;;5036946;28;20480;-70
2021/10/29 06:23:33;;;;;;;46.80;26.37;;;5.50;99.90;;;;;;5036283;28;20525;-70
2021/10/29 06:26:01;;;;;;;42.47;27.53;;;5.60;99.90;;;;;;5036358;28;20471;-70
2021/10/29 06:28:29;;;;;;;34.70;26.40;;;5.60;99.90;;;;;;5036202;28;20963;-70
2021/10/29 06:30:57;;;;;;;35.20;28.93;;;5.70;99.90;;;;;;5036110;28;20475;-71
2021/10/29 06:33:25;;;;;;;36.70;27.17;;;5.80;99.90;;;;;;5036174;28;20543;-71
2021/10/29 06:35:54;;;;;;;34.57;26.80;;;5.90;99.90;;;;;;5035716;28;20967;-71
2021/10/29 06:38:21;;;;;;;29.47;26.00;;;6.00;99.90;;;;;;5036099;28;20502;-70
2021/10/29 06:40:49;;;;;;;32.97;26.50;;;6.20;99.90;;;;;;5035958;28;20476;-71
2021/10/29 06:43:22;;;;;;;30.07;24.27;;;6.40;99.90;;;;;;5035938;28;20502;-71
2021/10/29 06:48:51;;;;;;;24.53;22.00;;;6.70;99.90;;;;;;5017062;28;20490;-71
2021/10/29 06:59:39;;;;;;;24.10;20.43;;;7.30;99.90;;;;;;5035314;28;20550;-72
2021/10/29 07:02:25;;;;;;;22.50;20.20;;;7.50;99.90;;;;;;5035216;28;21021;-72
2021/10/29 07:05:21;;;;;;;19.13;16.90;;;7.70;99.90;;;;;;5035351;28;20845;-72
2021/10/29 07:40:47;;;;;;;13.80;12.60;;;16.10;99.90;;;;;;5034973;28;20985;-73
2021/10/29 07:43:22;;;;;;;13.40;12.10;;;16.90;99.90;;;;;;5034916;28;20451;-73
2021/10/29 07:45:49;;;;;;;13.20;11.90;;;17.30;99.90;;;;;;5035122;28;20436;-73
2021/10/29 07:48:16;;;;;;;13.23;11.93;;;17.30;99.90;;;;;;5035902;28;20454;-73
2021/10/29 07:50:42;;;;;;;13.20;11.97;;;17.50;99.90;;;;;;5035620;28;20472;-73
2021/10/29 07:53:10;;;;;;;12.00;11.10;;;17.70;99.90;;;;;;5036215;28;20458;-73
2021/10/29 07:55:37;;;;;;;12.60;11.60;;;17.80;99.90;;;;;;5035715;28;20458;-72
2021/10/29 07:58:04;;;;;;;12.93;11.50;;;17.90;99.90;;;;;;5035721;28;20907;-72
2021/10/29 08:00:32;;;;;;;12.97;11.70;;;18.30;99.80;;;;;;5034869;28;20833;-73
2021/10/29 08:03:02;;;;;;;13.57;12.47;;;18.50;99.00;;;;;;5035216;28;20819;-72
2021/10/29 08:05:29;;;;;;;11.80;10.80;;;18.60;98.00;;;;;;5034773;28;20451;-73
2021/10/29 08:07:56;;;;;;;13.77;12.50;;;18.20;98.50;;;;;;5034661;28;20555;-73
2021/10/29 08:10:24;;;;;;;13.20;12.20;;;18.40;99.00;;;;;;5034605;28;20444;-73
2021/10/29 08:12:51;;;;;;;13.83;12.50;;;18.40;98.20;;;;;;5034324;28;20789;-72
2021/10/29 08:15:18;;;;;;;13.63;12.53;;;18.40;97.20;;;;;;5034503;28;20828;-72
2021/10/29 08:17:45;;;;;;;13.47;12.17;;;18.50;96.80;;;;;;5034092;28;21001;-72
2021/10/29 08:20:15;;;;;;;12.73;11.63;;;19.00;96.90;;;;;;5033979;28;20847;-72
2021/10/29 08:22:43;;;;;;;12.50;11.30;;;19.60;95.20;;;;;;5034014;28;20961;-72
2021/10/29 08:25:12;;;;;;;12.60;11.60;;;20.40;93.40;;;;;;5035010;28;20451;-73
2021/10/29 08:27:40;;;;;;;12.70;11.70;;;20.70;92.10;;;;;;5033817;28;20821;-73
2021/10/29 08:30:09;;;;;;;14.23;13.03;;;20.60;92.20;;;;;;5033651;28;20860;-72
2021/10/29 08:32:37;;;;;;;14.00;12.70;;;20.40;91.20;;;;;;5036229;28;20479;-72
2021/10/29 08:35:04;;;;;;;14.03;12.70;;;20.30;92.10;;;;;;5036231;28;20870;-73
2021/10/29 08:37:32;;;;;;;13.70;12.40;;;19.90;92.00;;;;;;5034001;28;20476;-72
2021/10/29 08:39:59;;;;;;;13.00;11.90;;;19.40;92.70;;;;;;5034017;28;20881;-73
2021/10/29 08:42:26;;;;;;;14.20;13.00;;;18.90;93.70;;;;;;5033829;28;20566;-73
2021/10/29 08:44:54;;;;;;;12.67;11.57;;;18.60;93.90;;;;;;5034060;28;20463;-73
2021/10/29 08:47:23;;;;;;;13.63;12.50;;;18.60;94.30;;;;;;5034073;28;20507;-73
2021/10/29 08:49:50;;;;;;;12.87;11.77;;;18.00;94.60;;;;;;5033864;28;20471;-73
2021/10/29 08:52:21;;;;;;;13.67;12.57;;;17.80;95.70;;;;;;5033588;28;20979;-72
2021/10/29 08:54:49;;;;;;;15.03;13.40;;;17.40;96.20;;;;;;5035176;28;20486;-72
2021/10/29 08:57:17;;;;;;;14.63;13.33;;;16.80;96.70;;;;;;5033397;28;20498;-72
2021/10/29 08:59:49;;;;;;;14.17;12.90;;;16.20;98.80;;;;;;5033327;28;20479;-72
2021/10/29 09:02:21;;;;;;;14.63;13.40;;;15.90;99.80;;;;;;5035990;28;20483;-72
2021/10/29 09:04:52;;;;;;;14.27;13.07;;;15.30;99.90;;;;;;5043417;28;20449;-72
2021/10/29 09:07:28;;;;;;;14.60;13.10;;;15.20;99.90;;;;;;5043195;28;20453;-72
2021/10/29 09:16:23;;;;;;;13.40;12.23;;;16.40;99.90;;;;;;5042751;28;20450;-72
2021/10/29 09:32:40;;;;;;;13.37;12.27;;;19.90;95.00;;;;;;5033447;28;20487;-72
2021/10/29 09:35:11;;;;;;;13.77;12.67;;;20.40;94.10;;;;;;5033304;28;20448;-72
2021/10/29 09:37:59;;;;;;;13.63;12.43;;;20.60;93.50;;;;;;5033624;28;20518;-72
2021/10/29 09:40:27;;;;;;;15.07;13.87;;;21.10;93.00;;;;;;5033690;28;20444;-72
2021/10/29 09:42:55;;;;;;;19.03;17.13;;;21.00;91.80;;;;;;5033400;28;20452;-72
2021/10/29 09:45:26;;;;;;;15.67;14.37;;;20.90;92.60;;;;;;5033382;28;20451;-72
2021/10/29 09:48:09;;;;;;;14.67;13.57;;;21.20;91.80;;;;;;5033383;28;20436;-72
2021/10/29 09:50:47;;;;;;;15.03;13.43;;;21.40;91.20;;;;;;5035108;28;20517;-73
2021/10/29 09:53:34;;;;;;;15.37;14.00;;;21.30;91.60;;;;;;5037025;28;20462;-72
2021/10/29 09:56:03;;;;;;;15.53;14.23;;;21.00;91.00;;;;;;5036422;28;20795;-72
2021/10/29 09:58:31;;;;;;;14.80;13.50;;;19.80;92.30;;;;;;5036851;28;20467;-72
2021/10/29 10:00:59;;;;;;;16.80;15.37;;;19.50;93.50;;;;;;5036415;28;20519;-72
2021/10/29 10:03:27;;;;;;;14.33;13.10;;;18.80;94.00;;;;;;5036778;28;20818;-72
2021/10/29 10:05:57;;;;;;;14.90;13.70;;;19.00;94.60;;;;;;5036955;28;20506;-72
2021/10/29 10:08:27;;;;;;;16.40;14.90;;;19.30;94.90;;;;;;5036622;28;20491;-72
2021/10/29 10:10:58;;;;;;;15.50;13.90;;;19.80;94.00;;;;;;5037302;28;20472;-72
2021/10/29 10:13:25;;;;;;;15.83;14.33;;;20.30;93.20;;;;;;5037195;28;20437;-72
2021/10/29 10:15:56;;;;;;;13.73;12.53;;;20.60;92.80;;;;;;5036918;28;20455;-71
2021/10/29 10:18:24;;;;;;;15.43;14.03;;;20.90;92.90;;;;;;5036114;28;20456;-72
2021/10/29 10:20:52;;;;;;;13.73;12.53;;;21.40;91.60;;;;;;5036283;28;20570;-72
2021/10/29 10:23:26;;;;;;;16.40;14.90;;;21.90;90.60;;;;;;5037201;28;20499;-71
2021/10/29 10:29:01;;;;;;;15.60;14.30;;;20.90;92.10;;;;;;5002286;28;20475;-70
2021/10/29 10:43:07;;;;;;;17.23;14.70;;;19.40;95.00;;;;;;5036122;28;20782;-72
2021/10/29 10:45:38;;;;;;;13.70;12.60;;;18.90;94.90;;;;;;5036112;28;20534;-71
2021/10/29 10:48:10;;;;;;;17.03;15.17;;;18.60;96.20;;;;;;5035997;28;20439;-72
2021/10/29 10:50:40;;;;;;;16.47;14.90;;;17.90;96.70;;;;;;5036163;28;20472;-72
2021/10/29 10:53:25;;;;;;;15.43;14.13;;;17.70;98.80;;;;;;5035884;28;20462;-71
2021/10/29 10:58:59;;;;;;;17.77;16.03;;;17.20;99.80;;;;;;5037217;28;20467;-72
2021/10/29 11:01:56;;;;;;;15.87;14.37;;;17.30;99.90;;;;;;5035431;28;20522;-72
2021/10/29 11:04:41;;;;;;;16.13;14.73;;;17.20;99.90;;;;;;5035662;28;20436;-71
2021/10/29 11:07:37;;;;;;;16.20;14.50;;;16.90;99.90;;;;;;5035910;28;20474;-71
2021/10/29 11:10:07;;;;;;;15.57;14.13;;;17.00;99.90;;;;;;5035570;28;20452;-71
2021/10/29 11:13:07;;;;;;;14.10;12.90;;;17.60;99.90;;;;;;5035858;28;20476;-73
2021/10/29 11:15:34;;;;;;;15.93;14.43;;;17.80;99.90;;;;;;5020274;28;20867;-72
2021/10/29 11:18:03;;;;;;;16.73;15.23;;;17.90;99.90;;;;;;5034954;28;20982;-71
2021/10/29 11:20:46;;;;;;;15.67;14.37;;;17.70;99.90;;;;;;5035339;28;20456;-71
2021/10/29 11:23:18;;;;;;;15.63;14.17;;;17.50;99.90;;;;;;5035197;28;20472;-71
2021/10/29 11:25:50;;;;;;;15.57;14.17;;;17.60;99.90;;;;;;5035178;28;20440;-72
2021/10/29 11:28:21;;;;;;;15.07;13.57;;;17.50;99.90;;;;;;5035301;28;20452;-72
2021/10/29 11:30:48;;;;;;;15.10;13.80;;;17.70;99.90;;;;;;5036085;28;20800;-71
2021/10/29 11:33:16;;;;;;;16.53;15.03;;;17.80;99.90;;;;;;5035202;28;20455;-73
2021/10/29 11:35:55;;;;;;;15.70;13.70;;;18.10;99.90;;;;;;5035149;28;20511;-73
2021/10/29 11:38:23;;;;;;;15.80;14.50;;;18.30;99.90;;;;;;5035581;28;20468;-71
2021/10/29 11:40:51;;;;;;;16.17;14.57;;;18.30;98.50;;;;;;5034706;28;20514;-71
2021/10/29 11:43:23;;;;;;;15.67;14.00;;;18.30;99.70;;;;;;5034929;28;20964;-71
2021/10/29 11:45:50;;;;;;;15.70;14.07;;;18.50;99.40;;;;;;5035416;28;20962;-71
2021/10/29 11:48:17;;;;;;;14.50;13.10;;;18.20;99.90;;;;;;5034662;28;20890;-71
2021/10/29 11:50:45;;;;;;;16.60;15.10;;;18.20;99.90;;;;;;5034830;28;20883;-72
2021/10/29 11:53:13;;;;;;;16.60;15.13;;;18.40;99.90;;;;;;5034915;28;20460;-72
2021/10/29 11:55:44;;;;;;;15.03;13.63;;;18.70;99.90;;;;;;5034840;28;20455;-72
2021/10/29 11:58:17;;;;;;;15.17;13.60;;;18.90;99.90;;;;;;5034884;28;20487;-73
2021/10/29 12:00:53;;;;;;;14.83;13.43;;;19.10;98.70;;;;;;5034527;28;20483;-72
2021/10/29 12:07:13;;;;;;;13.23;12.03;;;19.00;97.70;;;;;;4963317;28;20526;-74
2021/10/29 12:09:20;;;;;;;15.63;14.00;;;19.00;99.90;;;;;;5042453;28;20971;-72
2021/10/29 12:11:47;;;;;;;15.10;13.80;;;19.10;97.80;;;;;;5037892;28;20467;-73
2021/10/29 12:14:15;;;;;;;15.30;13.90;;;19.00;98.40;;;;;;5033770;28;20452;-73
2021/10/29 12:16:43;;;;;;;15.20;13.60;;;18.90;97.80;;;;;;5034471;28;20431;-73
2021/10/29 12:19:13;;;;;;;12.73;11.63;;;18.90;99.90;;;;;;5034477;28;20463;-73
2021/10/29 12:21:44;;;;;;;13.43;11.53;;;18.90;97.30;;;;;;5034112;28;20476;-74
2021/10/29 12:24:13;;;;;;;12.30;11.27;;;19.10;99.60;;;;;;5034668;28;20440;-73
2021/10/29 12:26:40;;;;;;;13.03;11.77;;;19.10;97.30;;;;;;5033937;28;21070;-73
2021/10/29 12:29:12;;;;;;;13.97;12.67;;;19.20;98.40;;;;;;5034987;28;20456;-74
2021/10/29 12:32:07;;;;;;;12.97;11.77;;;19.30;98.10;;;;;;5036575;28;20472;-74
2021/10/29 13:12:08;;;;;;;10.77;9.67;;;19.40;97.50;;;;;;5428227;22;20485;-70
2021/10/29 13:14:37;;;;;;;10.50;9.70;;;19.40;98.00;;;;;;5014762;28;20433;-70
2021/10/29 13:17:06;;;;;;;17.60;11.00;;;19.60;95.60;;;;;;5014624;28;20503;-70
2021/10/29 13:25:16;;;;;;;11.17;9.80;;;20.00;94.70;;;;;;5035767;28;20458;-70
2021/10/29 13:28:00;;;;;;;10.43;9.50;;;19.60;94.60;;;;;;5037788;28;20886;-69
2021/10/29 13:55:14;;;;;;;9.23;7.80;;;19.90;95.50;;;;;;5036324;28;20441;-70
2021/10/29 14:01:01;;;;;;;8.23;7.30;;;19.90;92.20;;;;;;5035756;28;20447;-74
2021/10/29 14:28:24;;;;;;;9.83;8.83;;;19.00;95.50;;;;;;5036907;28;20420;-74
2021/10/29 14:31:06;;;;;;;10.60;9.70;;;19.00;95.70;;;;;;5036645;28;20473;-73
2021/10/29 14:33:40;;;;;;;9.97;7.30;;;19.10;94.10;;;;;;5036654;28;20844;-73
2021/10/29 14:36:09;;;;;;;8.20;7.40;;;19.20;93.60;;;;;;5035647;28;20866;-75
2021/10/29 14:38:45;;;;;;;6.77;6.17;;;19.10;92.20;;;;;;5036463;28;20464;-74
2021/10/29 14:41:15;;;;;;;7.63;6.30;;;19.10;93.30;;;;;;5036458;28;20478;-74
2021/10/29 14:43:45;;;;;;;6.50;5.90;;;19.00;93.00;;;;;;5036506;28;20436;-74
2021/10/29 14:46:24;;;;;;;5.77;5.27;;;18.90;92.00;;;;;;5036717;28;20482;-75
2021/10/29 14:48:58;;;;;;;6.73;6.00;;;18.80;92.90;;;;;;5036674;28;20436;-74
2021/10/29 15:02:51;;;;;;;6.20;5.50;;;18.40;93.70;;;;;;5036441;28;20808;-74
2021/10/29 15:25:00;;;;;;;9.83;7.00;;;17.80;95.40;;;;;;5036617;28;20435;-75
2021/10/29 15:30:14;;;;;;;8.67;7.10;;;17.70;96.80;;;;;;5022083;28;20527;-75
2021/10/29 15:33:00;;;;;;;7.50;6.80;;;17.60;97.40;;;;;;5038656;28;20499;-75
2021/10/29 15:43:53;;;;;;;7.73;7.10;;;17.30;97.10;;;;;;4988023;28;20451;-71
2021/10/29 15:46:24;;;;;;;8.40;6.00;;;17.20;96.90;;;;;;5035327;28;20436;-71
2021/10/29 15:48:55;;;;;;;6.77;5.87;;;17.10;96.20;;;;;;5035431;28;20433;-71
2021/10/29 15:51:22;;;;;;;6.77;5.10;;;17.00;95.80;;;;;;5035289;28;20531;-71
2021/10/29 15:53:51;;;;;;;6.67;5.90;;;17.00;96.10;;;;;;5035145;28;20436;-71
2021/10/29 15:56:27;;;;;;;7.30;5.73;;;16.90;95.90;;;;;;5035026;28;20447;-70
2021/10/29 15:59:03;;;;;;;6.10;5.60;;;16.70;96.00;;;;;;5034620;28;21029;-71
2021/10/29 16:01:37;;;;;;;7.80;7.00;;;16.60;96.20;;;;;;5034695;28;20533;-71
2021/10/29 16:17:00;;;;;;;8.03;7.00;;;16.50;96.60;;;;;;5035284;28;20891;-72
2021/10/29 16:17:53;;;;;;;7.17;6.57;;;15.80;98.70;;;;;;5034827;28;20518;-73
2021/10/29 16:20:19;;;;;;;9.40;7.30;;;15.60;98.80;;;;;;5034763;28;20456;-73
2021/10/29 16:22:48;;;;;;;9.83;8.13;;;15.50;99.90;;;;;;5034638;28;20462;-74
2021/10/29 16:25:18;;;;;;;8.33;7.53;;;15.40;99.90;;;;;;5034669;28;20456;-73
2021/10/29 16:27:56;;;;;;;8.43;7.47;;;15.30;99.90;;;;;;5034426;28;20527;-72
2021/10/29 16:30:25;;;;;;;9.57;8.57;;;15.20;99.90;;;;;;5034677;28;20498;-73
2021/10/29 16:33:04;;;;;;;10.70;9.60;;;15.00;99.90;;;;;;5034689;28;20452;-74
2021/10/29 16:35:33;;;;;;;11.30;9.20;;;14.90;99.90;;;;;;5034344;28;20458;-72
2021/10/29 16:37:59;;;;;;;10.67;9.20;;;14.80;99.90;;;;;;5034701;28;20479;-73
2021/10/29 16:40:27;;;;;;;8.20;7.40;;;14.80;99.90;;;;;;5035247;28;20864;-72
2021/10/29 16:42:54;;;;;;;8.70;7.90;;;14.70;99.90;;;;;;5036892;28;20444;-72
2021/10/29 16:45:23;;;;;;;9.00;8.13;;;14.70;99.90;;;;;;5035814;28;20441;-73
2021/10/29 16:47:50;;;;;;;9.97;8.97;;;14.70;99.90;;;;;;5036077;28;20432;-73
2021/10/29 16:50:19;;;;;;;10.50;8.40;;;14.60;99.90;;;;;;5036201;28;20451;-73
2021/10/29 16:52:46;;;;;;;8.73;7.90;;;14.50;99.90;;;;;;5036071;28;20456;-76
2021/10/29 16:55:13;;;;;;;8.20;7.50;;;14.50;99.90;;;;;;5035148;28;20811;-71
2021/10/29 16:57:42;;;;;;;12.43;9.03;;;14.50;99.90;;;;;;5033853;28;20447;-77
2021/10/29 17:00:11;;;;;;;10.70;9.20;;;14.50;99.90;;;;;;5034812;28;20816;-73
2021/10/29 17:02:38;;;;;;;13.73;7.97;;;14.40;99.90;;;;;;5034437;28;20472;-75
2021/10/29 17:05:06;;;;;;;9.07;8.10;;;14.40;99.90;;;;;;5038663;28;20460;-69
2021/10/29 17:07:32;;;;;;;11.00;8.40;;;14.30;99.90;;;;;;5035814;28;20536;-71
2021/10/29 17:10:06;;;;;;;11.60;8.50;;;14.30;99.90;;;;;;5034114;28;20947;-74
2021/10/29 17:12:33;;;;;;;9.20;8.30;;;14.20;99.90;;;;;;5033731;28;20533;-72
2021/10/29 17:15:01;;;;;;;9.33;8.43;;;14.20;99.90;;;;;;5033497;28;20456;-73
2021/10/29 17:17:28;;;;;;;8.70;7.80;;;14.10;99.90;;;;;;5034763;28;20487;-72
2021/10/29 17:19:54;;;;;;;8.90;8.00;;;14.00;99.90;;;;;;5034454;28;20464;-73
2021/10/29 17:22:21;;;;;;;13.60;8.37;;;14.00;99.90;;;;;;5034213;28;20479;-72
2021/10/29 17:24:52;;;;;;;8.73;8.03;;;13.90;99.90;;;;;;5033843;28;20462;-70
2021/10/29 17:27:18;;;;;;;8.77;7.87;;;13.80;99.90;;;;;;5033899;28;20443;-74
2021/10/29 17:29:45;;;;;;;7.80;7.00;;;13.70;99.90;;;;;;5033843;28;20455;-74
2021/10/29 17:32:15;;;;;;;8.10;7.40;;;13.60;99.90;;;;;;5034117;28;20471;-74
2021/10/29 17:34:44;;;;;;;8.53;7.70;;;13.50;99.90;;;;;;5034627;28;20452;-73
2021/10/29 17:37:11;;;;;;;8.73;7.90;;;13.40;99.90;;;;;;5033985;28;20542;-72
2021/10/29 17:39:38;;;;;;;9.00;8.10;;;13.30;99.90;;;;;;5033977;28;21012;-72
2021/10/29 17:42:07;;;;;;;10.40;8.20;;;13.30;99.90;;;;;;5034586;28;20468;-72
2021/10/29 17:44:34;;;;;;;8.77;7.93;;;13.20;99.90;;;;;;5034118;28;20456;-72
2021/10/29 17:47:02;;;;;;;9.37;8.37;;;13.10;99.90;;;;;;5035157;28;20456;-72
2021/10/29 17:49:30;;;;;;;10.83;9.47;;;13.10;99.90;;;;;;5034670;28;20506;-73
2021/10/29 17:52:00;;;;;;;10.30;9.27;;;13.00;99.90;;;;;;5033220;28;21002;-72
2021/10/29 17:54:29;;;;;;;11.53;9.53;;;13.00;99.90;;;;;;5033500;28;20432;-73
2021/10/29 17:56:56;;;;;;;11.90;10.57;;;12.80;99.90;;;;;;5034200;28;20495;-73
2021/10/29 17:59:24;;;;;;;16.20;10.43;;;12.80;99.90;;;;;;5033564;28;20475;-72
2021/10/29 18:01:51;;;;;;;18.70;10.17;;;12.70;99.90;;;;;;5033404;28;20479;-73
2021/10/29 18:04:18;;;;;;;11.57;9.73;;;12.60;99.90;;;;;;5034328;28;20478;-72
2021/10/29 18:06:46;;;;;;;12.17;9.93;;;12.40;99.90;;;;;;5034501;28;20455;-72
2021/10/29 18:09:12;;;;;;;12.50;10.90;;;12.40;99.90;;;;;;5034023;28;20454;-73
2021/10/29 18:11:39;;;;;;;11.00;9.77;;;12.30;99.90;;;;;;5035188;28;20487;-73
2021/10/29 18:14:07;;;;;;;13.70;10.10;;;12.20;99.90;;;;;;5037272;28;20456;-73
2021/10/29 18:16:35;;;;;;;11.53;10.40;;;12.10;99.90;;;;;;5037131;28;20458;-73
2021/10/29 18:19:03;;;;;;;12.80;10.83;;;11.90;99.90;;;;;;5037178;28;20480;-72
2021/10/29 18:21:31;;;;;;;13.27;11.30;;;11.80;99.90;;;;;;5036908;28;20526;-72
2021/10/29 18:23:59;;;;;;;12.27;10.60;;;11.70;99.90;;;;;;5037090;28;20514;-72
2021/10/29 18:26:27;;;;;;;11.93;10.27;;;11.60;99.90;;;;;;5037199;28;20455;-72
2021/10/29 18:28:56;;;;;;;13.63;12.23;;;11.60;99.90;;;;;;5037111;28;20448;-72
2021/10/29 18:31:24;;;;;;;12.10;10.70;;;11.50;99.90;;;;;;5037266;28;21001;-72
2021/10/29 18:33:51;;;;;;;11.00;9.90;;;11.50;99.90;;;;;;5037615;28;20457;-72
2021/10/29 18:36:18;;;;;;;12.60;11.13;;;11.50;99.90;;;;;;5037860;28;20447;-72
2021/10/29 18:38:48;;;;;;;11.50;10.30;;;11.50;99.90;;;;;;5047341;28;20503;-71
2021/10/29 18:41:16;;;;;;;11.20;9.97;;;11.40;99.90;;;;;;5047345;28;20558;-72
2021/10/29 18:43:43;;;;;;;12.63;11.20;;;11.40;99.90;;;;;;5037775;28;20456;-72
2021/10/29 18:46:09;;;;;;;14.53;10.77;;;11.40;99.90;;;;;;5036726;28;20460;-71
2021/10/29 18:48:36;;;;;;;13.73;11.57;;;11.40;99.90;;;;;;5036678;28;20791;-72
2021/10/29 18:51:03;;;;;;;12.77;11.57;;;11.30;99.90;;;;;;5037088;28;20517;-72
2021/10/29 18:53:30;;;;;;;12.37;11.20;;;11.30;99.90;;;;;;5036335;28;20459;-71
2021/10/29 18:55:57;;;;;;;13.03;11.00;;;11.40;99.90;;;;;;5036341;28;20460;-71
2021/10/29 18:58:25;;;;;;;13.53;12.10;;;11.40;99.90;;;;;;5036399;28;20456;-71
2021/10/29 19:00:52;;;;;;;12.80;11.60;;;11.40;99.90;;;;;;5036391;28;20969;-71
2021/10/29 19:03:19;;;;;;;12.47;11.27;;;11.40;99.90;;;;;;5036723;28;20440;-71
2021/10/29 19:05:46;;;;;;;13.10;11.80;;;11.40;99.90;;;;;;5036479;28;20440;-72
2021/10/29 19:08:13;;;;;;;12.80;11.53;;;11.40;99.90;;;;;;5036424;28;20440;-71
2021/10/29 19:10:39;;;;;;;13.60;12.20;;;11.40;99.90;;;;;;5035560;28;20491;-71
2021/10/29 19:13:07;;;;;;;12.83;11.47;;;11.40;99.90;;;;;;5036515;28;20799;-71
2021/10/29 19:15:35;;;;;;;13.00;11.73;;;11.40;99.90;;;;;;5036267;28;20502;-71
2021/10/29 19:18:02;;;;;;;13.00;11.80;;;11.40;99.90;;;;;;5036489;28;20456;-72
2021/10/29 19:20:29;;;;;;;13.17;11.93;;;11.40;99.90;;;;;;5036268;28;20471;-71
2021/10/29 19:22:58;;;;;;;14.80;12.47;;;11.40;99.90;;;;;;5036260;28;20463;-72
2021/10/29 19:25:24;;;;;;;13.20;11.83;;;11.40;99.90;;;;;;5035851;28;20471;-72
2021/10/29 19:27:51;;;;;;;13.00;11.70;;;11.40;99.90;;;;;;5036714;28;20489;-73
2021/10/29 19:30:18;;;;;;;14.67;13.17;;;11.30;99.90;;;;;;5036189;28;20444;-72
2021/10/29 19:32:46;;;;;;;14.47;12.90;;;11.30;99.90;;;;;;5035833;28;20788;-72
2021/10/29 19:35:13;;;;;;;14.00;12.60;;;11.30;99.90;;;;;;5035539;28;20510;-72
2021/10/29 19:37:45;;;;;;;15.33;12.70;;;11.20;99.90;;;;;;5035807;28;20460;-71
2021/10/29 19:40:21;;;;;;;14.60;13.10;;;11.30;99.90;;;;;;5035564;28;20467;-71
2021/10/29 19:42:48;;;;;;;14.37;12.87;;;11.20;99.90;;;;;;5036034;28;20435;-73
2021/10/29 19:45:14;;;;;;;14.37;12.87;;;11.20;99.90;;;;;;5035970;28;20455;-73
2021/10/29 19:47:41;;;;;;;15.53;13.13;;;11.20;99.90;;;;;;5035564;28;20459;-71
2021/10/29 19:50:10;;;;;;;14.97;13.37;;;11.20;99.90;;;;;;5035373;28;20466;-72
2021/10/29 19:52:37;;;;;;;15.17;13.67;;;11.20;99.90;;;;;;5035536;28;20475;-72
2021/10/29 19:55:04;;;;;;;16.30;14.60;;;11.20;99.90;;;;;;5035436;28;20966;-72
2021/10/29 19:57:54;;;;;;;14.23;12.83;;;11.20;99.90;;;;;;5035179;28;20459;-72
2021/10/29 20:00:21;;;;;;;15.27;13.67;;;11.20;99.90;;;;;;5035539;28;20467;-72
2021/10/29 20:02:50;;;;;;;18.30;15.63;;;11.10;99.90;;;;;;5035868;28;20447;-72
2021/10/29 20:05:19;;;;;;;17.70;13.57;;;11.10;99.90;;;;;;5035264;28;20467;-72
2021/10/29 20:07:46;;;;;;;18.27;14.27;;;11.20;99.90;;;;;;5036577;28;20458;-72
2021/10/29 20:10:13;;;;;;;16.23;14.53;;;11.20;99.90;;;;;;5038751;28;20453;-72
2021/10/29 20:12:41;;;;;;;15.27;13.77;;;11.10;99.90;;;;;;5034930;28;20506;-71
2021/10/29 20:15:10;;;;;;;17.20;13.67;;;11.00;99.90;;;;;;5034856;28;20476;-72
2021/10/29 20:17:38;;;;;;;16.20;14.50;;;11.00;99.90;;;;;;5034540;28;20472;-72
2021/10/29 20:20:06;;;;;;;22.20;19.83;;;11.00;99.90;;;;;;5034689;28;20487;-73
2021/10/29 20:22:36;;;;;;;20.37;17.10;;;10.90;99.90;;;;;;5034110;28;20506;-71
2021/10/29 20:25:03;;;;;;;18.23;16.10;;;10.90;99.90;;;;;;5035523;28;20452;-71
2021/10/29 20:27:30;;;;;;;21.00;17.80;;;10.80;99.90;;;;;;5034492;28;20440;-71
2021/10/29 20:29:57;;;;;;;18.40;16.50;;;10.80;99.90;;;;;;5034306;28;20499;-71
2021/10/29 20:32:24;;;;;;;18.27;16.47;;;10.80;99.90;;;;;;5034517;28;20510;-71
2021/10/29 20:34:51;;;;;;;20.53;16.87;;;10.70;99.90;;;;;;5033797;28;20534;-71
2021/10/29 20:37:18;;;;;;;21.73;17.53;;;10.50;99.90;;;;;;5034744;28;20456;-71
2021/10/29 20:39:46;;;;;;;22.50;17.37;;;10.50;99.90;;;;;;5034450;28;20468;-71